This is the latest recevied weather packets stored in our database for station/object NE1CU. If no packets are shown the sender has not sent any weather packets the latest 10 day(s).
| Time | Temp. | Humidity | Pressure | Rain* | Wind** | Luminosity | Snow |
|---|---|---|---|---|---|---|---|
| 1777746536 | 15° C | 54% | 1011.2 hPa | 0 mm | - | 377 W/m² | - |
| 1777746232 | 15° C | 55% | 1011.2 hPa | 0 mm | - | 1108 W/m² | - |
| 1777745928 | 15° C | 55% | 1011.3 hPa | 0 mm | - | 266 W/m² | - |
| 1777745627 | 15° C | 56% | 1011 hPa | 0 mm | - | 987 W/m² | - |
| 1777745325 | 13.89° C | 58% | 1011.2 hPa | 0 mm | - | 1113 W/m² | - |
| 1777745022 | 13.33° C | 62% | 1011.2 hPa | 0 mm | - | 425 W/m² | - |
| 1777744718 | 13.33° C | 62% | 1011.2 hPa | 0 mm | - | 209 W/m² | - |
| 1777744412 | 14.44° C | 60% | 1011.1 hPa | 0 mm | - | 106 W/m² | - |
| 1777744109 | 16.11° C | 54% | 1011.1 hPa | 0 mm | - | 101 W/m² | - |
| 1777743806 | 16.67° C | 56% | 1010.9 hPa | 0 mm | - | 760 W/m² | - |
| 1777743503 | 16.11° C | 61% | 1010.8 hPa | 0 mm | - | 980 W/m² | - |
| 1777743200 | 15.56° C | 60% | 1010.9 hPa | 0 mm | - | 912 W/m² | - |
| 1777742898 | 15° C | 60% | 1010.8 hPa | 0 mm | - | 975 W/m² | - |
| 1777742595 | 15.56° C | 60% | 1011 hPa | 0 mm | - | 644 W/m² | - |
| 1777742290 | 15° C | 61% | 1011.1 hPa | 0 mm | - | 475 W/m² | - |
| 1777741988 | 15.56° C | 60% | 1011.2 hPa | 0 mm | - | 454 W/m² | - |
| 1777741685 | 15.56° C | 60% | 1011.2 hPa | 0 mm | - | 596 W/m² | - |
| 1777741381 | 15.56° C | 62% | 1011.2 hPa | 0 mm | - | 1033 W/m² | - |
| 1777741077 | 15.56° C | 61% | 1011.2 hPa | 0 mm | - | 633 W/m² | - |
| 1777740774 | 15.56° C | 61% | 1011.2 hPa | 0 mm | - | 522 W/m² | - |
| 1777740471 | 15.56° C | 62% | 1011.2 hPa | 0 mm | - | 798 W/m² | - |
| 1777740168 | 15.56° C | 62% | 1011.1 hPa | 0 mm | - | 784 W/m² | - |
| 1777739864 | 15° C | 64% | 1011.1 hPa | 0 mm | - | 684 W/m² | - |
| 1777739561 | 14.44° C | 64% | 1011.3 hPa | 0 mm | - | 749 W/m² | - |
| 1777739258 | 14.44° C | 65% | 1011.1 hPa | 0 mm | - | 520 W/m² | - |
* Rain latest hour (hover to see other rain measurements)
** Current wind speed in m/s (hover to see current wind gust speed)